KSLK

Adirondack Regional Airport

Saranac Lake, New York, USA
METAR KSLK 160051Z AUTO 06006KT 10SM CLR M02/M03 A3020 RMK AO2 SLP245 T10171033
Observed Flight Rules
Dec-16 @ 00:51 UTC (46 minutes ago) Visual Flight Rules
Wind Visibility Clouds
60° at 6 knots 10 miles
  • Clear skies
Temperatures Readings
Current -2°C / 28°F
Dewpoint -3°C / 27°F
Humidity 93%
Altimeter 30.2" Hg
Pressure 1024.5 hPa
Elevation 498
METAR KSLK 160051Z AUTO 06006KT 10SM CLR M02/M03 A3020 RMK AO2 SLP245 T10171033
Observed Flight Rules
Dec-16 @ 00:51 UTC
(46 minutes ago)
VFR
Wind Visibility
60° at 6 knots 10 miles
Clouds
  • Clear skies
Temperature Dewpoint
-2°C / 28°F -3°C / 27°F
Humidity Altimeter Pressure
93% 30.2" Hg 1024.5 hPa